sensor_id;sensor_type;location;lat;lon;timestamp;pressure;altitude;pressure_sealevel;temperature;humidity
43711;BME280;29309;42.682;23.372;2022-08-20T00:01:36;94852.19;;;24.32;48.67
43711;BME280;29309;42.682;23.372;2022-08-20T00:04:02;94850.84;;;24.21;49.24
43711;BME280;29309;42.682;23.372;2022-08-20T00:06:27;94850.09;;;24.31;48.94
43711;BME280;29309;42.682;23.372;2022-08-20T00:08:53;94855.78;;;24.27;48.96
43711;BME280;29309;42.682;23.372;2022-08-20T00:11:22;94857.13;;;24.36;49.03
43711;BME280;29309;42.682;23.372;2022-08-20T00:13:51;94859.69;;;24.64;48.25
43711;BME280;29309;42.682;23.372;2022-08-20T00:16:18;94853.41;;;24.54;48.30
43711;BME280;29309;42.682;23.372;2022-08-20T00:18:44;94852.69;;;24.53;48.49
43711;BME280;29309;42.682;23.372;2022-08-20T00:21:13;94851.28;;;24.56;48.43
43711;BME280;29309;42.682;23.372;2022-08-20T00:23:41;94859.66;;;24.70;47.97
43711;BME280;29309;42.682;23.372;2022-08-20T00:26:09;94847.66;;;24.62;47.96
43711;BME280;29309;42.682;23.372;2022-08-20T00:28:36;94859.94;;;24.36;49.00
43711;BME280;29309;42.682;23.372;2022-08-20T00:31:04;94853.56;;;24.35;48.94
43711;BME280;29309;42.682;23.372;2022-08-20T00:33:30;94854.22;;;24.44;48.77
43711;BME280;29309;42.682;23.372;2022-08-20T00:35:56;94849.94;;;24.45;48.58
43711;BME280;29309;42.682;23.372;2022-08-20T00:38:23;94847.13;;;24.45;48.75
43711;BME280;29309;42.682;23.372;2022-08-20T00:40:56;94843.50;;;24.53;47.99
43711;BME280;29309;42.682;23.372;2022-08-20T00:43:36;94848.53;;;24.44;48.86
43711;BME280;29309;42.682;23.372;2022-08-20T00:46:06;94849.19;;;24.50;48.68
43711;BME280;29309;42.682;23.372;2022-08-20T00:48:35;94850.56;;;24.56;48.49
43711;BME280;29309;42.682;23.372;2022-08-20T00:51:07;94844.09;;;24.63;48.35
43711;BME280;29309;42.682;23.372;2022-08-20T00:53:33;94840.16;;;24.30;48.92
43711;BME280;29309;42.682;23.372;2022-08-20T00:56:00;94835.81;;;24.41;48.82
43711;BME280;29309;42.682;23.372;2022-08-20T00:58:26;94837.94;;;24.40;48.84
43711;BME280;29309;42.682;23.372;2022-08-20T01:00:53;94842.81;;;24.48;48.66
43711;BME280;29309;42.682;23.372;2022-08-20T01:03:19;94834.50;;;24.26;49.28
43711;BME280;29309;42.682;23.372;2022-08-20T01:05:48;94835.31;;;24.16;49.40
43711;BME280;29309;42.682;23.372;2022-08-20T01:08:16;94831.75;;;24.14;49.60
43711;BME280;29309;42.682;23.372;2022-08-20T01:10:44;94824.72;;;24.02;49.94
43711;BME280;29309;42.682;23.372;2022-08-20T01:13:16;94834.66;;;24.03;50.16
43711;BME280;29309;42.682;23.372;2022-08-20T01:15:44;94826.84;;;24.08;49.90
43711;BME280;29309;42.682;23.372;2022-08-20T01:18:14;94817.69;;;23.97;50.20
43711;BME280;29309;42.682;23.372;2022-08-20T01:20:44;94812.00;;;24.01;50.25
43711;BME280;29309;42.682;23.372;2022-08-20T01:26:04;94826.16;;;24.03;50.27
43711;BME280;29309;42.682;23.372;2022-08-20T01:31:13;94815.63;;;23.90;50.65
43711;BME280;29309;42.682;23.372;2022-08-20T01:33:39;94807.94;;;23.76;50.83
43711;BME280;29309;42.682;23.372;2022-08-20T01:36:06;94809.31;;;23.83;50.80
43711;BME280;29309;42.682;23.372;2022-08-20T01:38:32;94812.13;;;23.83;51.02
43711;BME280;29309;42.682;23.372;2022-08-20T01:43:50;94817.78;;;23.85;50.76
43711;BME280;29309;42.682;23.372;2022-08-20T01:46:20;94813.59;;;23.78;51.03
43711;BME280;29309;42.682;23.372;2022-08-20T01:48:46;94808.63;;;23.77;51.03
43711;BME280;29309;42.682;23.372;2022-08-20T01:51:16;94800.94;;;23.61;51.79
43711;BME280;29309;42.682;23.372;2022-08-20T01:53:51;94790.97;;;23.72;51.39
43711;BME280;29309;42.682;23.372;2022-08-20T01:56:21;94800.22;;;23.63;51.57
43711;BME280;29309;42.682;23.372;2022-08-20T01:58:48;94793.19;;;23.56;51.75
43711;BME280;29309;42.682;23.372;2022-08-20T02:01:55;94788.91;;;23.59;51.92
43711;BME280;29309;42.682;23.372;2022-08-20T02:04:14;94786.81;;;23.57;51.80
43711;BME280;29309;42.682;23.372;2022-08-20T02:06:44;94792.53;;;23.41;52.32
43711;BME280;29309;42.682;23.372;2022-08-20T02:09:10;94793.28;;;23.35;52.50
43711;BME280;29309;42.682;23.372;2022-08-20T02:11:37;94789.75;;;23.33;52.56
43711;BME280;29309;42.682;23.372;2022-08-20T02:14:06;94798.19;;;23.41;52.56
43711;BME280;29309;42.682;23.372;2022-08-20T02:16:35;94791.13;;;23.46;52.51
43711;BME280;29309;42.682;23.372;2022-08-20T02:19:10;94794.63;;;23.48;52.54
43711;BME280;29309;42.682;23.372;2022-08-20T02:21:43;94788.25;;;23.50;52.61
43711;BME280;29309;42.682;23.372;2022-08-20T02:24:10;94778.41;;;23.43;52.71
43711;BME280;29309;42.682;23.372;2022-08-20T02:26:36;94781.81;;;23.62;52.32
43711;BME280;29309;42.682;23.372;2022-08-20T02:29:05;94789.63;;;23.55;52.56
43711;BME280;29309;42.682;23.372;2022-08-20T02:31:31;94789.69;;;23.51;52.70
43711;BME280;29309;42.682;23.372;2022-08-20T02:33:57;94781.91;;;23.47;52.81
43711;BME280;29309;42.682;23.372;2022-08-20T02:36:23;94780.38;;;23.63;52.31
43711;BME280;29309;42.682;23.372;2022-08-20T02:38:48;94786.00;;;23.71;52.15
43711;BME280;29309;42.682;23.372;2022-08-20T02:41:14;94779.69;;;23.60;52.55
43711;BME280;29309;42.682;23.372;2022-08-20T02:43:40;94793.19;;;23.58;52.73
43711;BME280;29309;42.682;23.372;2022-08-20T02:46:06;94785.34;;;23.64;52.33
43711;BME280;29309;42.682;23.372;2022-08-20T02:48:32;94786.63;;;23.81;52.21
43711;BME280;29309;42.682;23.372;2022-08-20T02:51:03;94781.72;;;23.74;51.96
43711;BME280;29309;42.682;23.372;2022-08-20T02:53:32;94783.16;;;23.71;52.24
43711;BME280;29309;42.682;23.372;2022-08-20T02:55:59;94778.25;;;23.63;52.53
43711;BME280;29309;42.682;23.372;2022-08-20T02:58:25;94796.66;;;23.66;52.71
43711;BME280;29309;42.682;23.372;2022-08-20T03:00:51;94794.63;;;23.52;53.23
43711;BME280;29309;42.682;23.372;2022-08-20T03:03:17;94798.81;;;23.66;52.92
43711;BME280;29309;42.682;23.372;2022-08-20T03:05:47;94795.38;;;23.47;53.27
43711;BME280;29309;42.682;23.372;2022-08-20T03:08:14;94781.19;;;23.41;53.40
43711;BME280;29309;42.682;23.372;2022-08-20T03:10:41;94791.16;;;23.36;53.44
43711;BME280;29309;42.682;23.372;2022-08-20T03:13:08;94799.63;;;23.38;53.48
43711;BME280;29309;42.682;23.372;2022-08-20T03:15:41;94799.66;;;23.44;53.66
43711;BME280;29309;42.682;23.372;2022-08-20T03:18:07;94793.94;;;23.50;53.36
43711;BME280;29309;42.682;23.372;2022-08-20T03:20:33;94798.94;;;23.41;53.48
43711;BME280;29309;42.682;23.372;2022-08-20T03:22:58;94797.53;;;23.34;53.73
43711;BME280;29309;42.682;23.372;2022-08-20T03:25:25;94805.41;;;23.22;54.14
43711;BME280;29309;42.682;23.372;2022-08-20T03:27:50;94785.66;;;23.03;54.71
43711;BME280;29309;42.682;23.372;2022-08-20T03:30:16;94797.03;;;22.95;55.30
43711;BME280;29309;42.682;23.372;2022-08-20T03:32:43;94795.59;;;22.96;55.00
43711;BME280;29309;42.682;23.372;2022-08-20T03:35:10;94797.03;;;22.95;55.46
43711;BME280;29309;42.682;23.372;2022-08-20T03:37:37;94799.84;;;22.95;55.53
43711;BME280;29309;42.682;23.372;2022-08-20T03:40:05;94803.41;;;22.90;55.84
43711;BME280;29309;42.682;23.372;2022-08-20T03:42:31;94796.38;;;22.79;56.04
43711;BME280;29309;42.682;23.372;2022-08-20T03:44:57;94798.50;;;22.78;56.14
43711;BME280;29309;42.682;23.372;2022-08-20T03:47:22;94804.19;;;22.64;56.44
43711;BME280;29309;42.682;23.372;2022-08-20T03:49:48;94808.44;;;22.75;56.40
43711;BME280;29309;42.682;23.372;2022-08-20T03:52:14;94805.56;;;22.65;56.77
43711;BME280;29309;42.682;23.372;2022-08-20T03:54:41;94809.84;;;22.58;56.90
43711;BME280;29309;42.682;23.372;2022-08-20T03:57:12;94813.34;;;22.83;56.15
43711;BME280;29309;42.682;23.372;2022-08-20T03:59:38;94804.16;;;22.72;56.39
43711;BME280;29309;42.682;23.372;2022-08-20T04:02:03;94821.13;;;22.80;56.30
43711;BME280;29309;42.682;23.372;2022-08-20T04:04:29;94811.91;;;22.92;55.90
43711;BME280;29309;42.682;23.372;2022-08-20T04:06:54;94820.41;;;22.84;56.13
43711;BME280;29309;42.682;23.372;2022-08-20T04:09:20;94812.59;;;22.86;56.13
43711;BME280;29309;42.682;23.372;2022-08-20T04:11:46;94811.91;;;22.88;55.98
43711;BME280;29309;42.682;23.372;2022-08-20T04:14:11;94819.75;;;22.71;56.45
43711;BME280;29309;42.682;23.372;2022-08-20T04:16:37;94808.44;;;22.51;57.34
43711;BME280;29309;42.682;23.372;2022-08-20T04:19:04;94814.78;;;22.70;56.90
43711;BME280;29309;42.682;23.372;2022-08-20T04:21:33;94813.38;;;22.71;56.70
43711;BME280;29309;42.682;23.372;2022-08-20T04:24:01;94823.97;;;22.78;56.56
43711;BME280;29309;42.682;23.372;2022-08-20T04:26:27;94814.75;;;22.84;56.77
43711;BME280;29309;42.682;23.372;2022-08-20T04:28:52;94816.81;;;23.03;55.87
43711;BME280;29309;42.682;23.372;2022-08-20T04:31:19;94808.34;;;22.99;55.92
43711;BME280;29309;42.682;23.372;2022-08-20T04:33:45;94812.53;;;23.11;55.72
43711;BME280;29309;42.682;23.372;2022-08-20T04:36:11;94812.53;;;23.07;55.74
43711;BME280;29309;42.682;23.372;2022-08-20T04:38:38;94813.94;;;23.12;55.55
43711;BME280;29309;42.682;23.372;2022-08-20T04:41:03;94813.16;;;23.23;55.38
43711;BME280;29309;42.682;23.372;2022-08-20T04:43:32;94818.09;;;23.27;55.48
43711;BME280;29309;42.682;23.372;2022-08-20T04:46:01;94819.63;;;23.05;56.18
43711;BME280;29309;42.682;23.372;2022-08-20T04:48:28;94820.38;;;22.96;56.59
43711;BME280;29309;42.682;23.372;2022-08-20T04:50:54;94819.63;;;23.05;56.47
43711;BME280;29309;42.682;23.372;2022-08-20T04:53:25;94819.59;;;23.10;56.42
43711;BME280;29309;42.682;23.372;2022-08-20T04:55:51;94822.41;;;23.22;56.15
43711;BME280;29309;42.682;23.372;2022-08-20T04:58:25;94808.97;;;23.16;56.32
43711;BME280;29309;42.682;23.372;2022-08-20T05:00:57;94808.25;;;23.18;56.28
43711;BME280;29309;42.682;23.372;2022-08-20T05:03:23;94822.28;;;23.50;55.74
43711;BME280;29309;42.682;23.372;2022-08-20T05:05:49;94824.34;;;23.56;55.66
43711;BME280;29309;42.682;23.372;2022-08-20T05:08:18;94816.59;;;23.54;55.14
43711;BME280;29309;42.682;23.372;2022-08-20T05:10:45;94808.75;;;23.61;55.36
43711;BME280;29309;42.682;23.372;2022-08-20T05:13:11;94817.78;;;23.85;54.57
43711;BME280;29309;42.682;23.372;2022-08-20T05:15:38;94826.06;;;24.18;54.05
43711;BME280;29309;42.682;23.372;2022-08-20T05:18:05;94828.13;;;24.25;53.80
43711;BME280;29309;42.682;23.372;2022-08-20T05:20:34;94822.38;;;24.31;53.40
43711;BME280;29309;42.682;23.372;2022-08-20T05:23:05;94820.22;;;24.38;53.00
43711;BME280;29309;42.682;23.372;2022-08-20T05:25:32;94816.69;;;24.35;53.07
43711;BME280;29309;42.682;23.372;2022-08-20T05:28:03;94797.53;;;24.38;52.88
43711;BME280;29309;42.682;23.372;2022-08-20T05:30:34;94806.47;;;24.65;52.46
43711;BME280;29309;42.682;23.372;2022-08-20T05:33:03;94817.03;;;24.74;52.52
43711;BME280;29309;42.682;23.372;2022-08-20T05:35:30;94818.59;;;24.59;52.62
43711;BME280;29309;42.682;23.372;2022-08-20T05:37:59;94827.00;;;24.69;52.69
43711;BME280;29309;42.682;23.372;2022-08-20T05:40:26;94809.25;;;24.69;52.41
43711;BME280;29309;42.682;23.372;2022-08-20T05:42:52;94809.75;;;24.91;51.99
43711;BME280;29309;42.682;23.372;2022-08-20T05:50:28;94792.63;;;25.00;51.83
43711;BME280;29309;42.682;23.372;2022-08-20T05:52:55;94804.53;;;25.12;51.40
43711;BME280;29309;42.682;23.372;2022-08-20T05:55:20;94803.84;;;25.10;51.21
43711;BME280;29309;42.682;23.372;2022-08-20T05:57:48;94799.00;;;25.00;51.75
43711;BME280;29309;42.682;23.372;2022-08-20T06:00:16;94819.34;;;25.19;51.36
43711;BME280;29309;42.682;23.372;2022-08-20T06:02:41;94808.03;;;25.17;52.01
43711;BME280;29309;42.682;23.372;2022-08-20T06:05:25;94804.84;;;25.43;51.25
43711;BME280;29309;42.682;23.372;2022-08-20T06:07:52;94800.38;;;25.58;50.88
43711;BME280;29309;42.682;23.372;2022-08-20T06:10:18;94791.59;;;25.76;50.17
43711;BME280;29309;42.682;23.372;2022-08-20T06:12:43;94788.91;;;26.11;49.57
43711;BME280;29309;42.682;23.372;2022-08-20T06:15:10;94789.09;;;26.44;48.62
43711;BME280;29309;42.682;23.372;2022-08-20T06:17:36;94797.66;;;26.81;47.68
43711;BME280;29309;42.682;23.372;2022-08-20T06:20:05;94796.25;;;27.17;46.86
43711;BME280;29309;42.682;23.372;2022-08-20T06:22:32;94799.13;;;27.52;45.94
43711;BME280;29309;42.682;23.372;2022-08-20T06:24:58;94804.03;;;27.86;45.12
43711;BME280;29309;42.682;23.372;2022-08-20T06:27:23;94804.25;;;28.09;44.15
43711;BME280;29309;42.682;23.372;2022-08-20T06:29:50;94803.69;;;28.31;43.63
43711;BME280;29309;42.682;23.372;2022-08-20T06:32:16;94802.19;;;28.34;43.93
43711;BME280;29309;42.682;23.372;2022-08-20T06:34:42;94805.94;;;28.55;43.35
43711;BME280;29309;42.682;23.372;2022-08-20T06:37:15;94801.81;;;29.04;42.50
43711;BME280;29309;42.682;23.372;2022-08-20T06:39:42;94802.38;;;29.35;41.67
43711;BME280;29309;42.682;23.372;2022-08-20T06:42:07;94799.25;;;29.68;40.96
43711;BME280;29309;42.682;23.372;2022-08-20T06:44:33;94793.69;;;29.87;40.74
43711;BME280;29309;42.682;23.372;2022-08-20T06:47:00;94798.97;;;30.01;40.10
43711;BME280;29309;42.682;23.372;2022-08-20T06:49:25;94787.88;;;29.89;40.71
43711;BME280;29309;42.682;23.372;2022-08-20T06:51:51;94786.75;;;30.02;39.93
43711;BME280;29309;42.682;23.372;2022-08-20T06:54:16;94782.34;;;29.83;40.19
43711;BME280;29309;42.682;23.372;2022-08-20T06:56:41;94785.59;;;29.93;40.09
43711;BME280;29309;42.682;23.372;2022-08-20T06:59:08;94778.84;;;30.03;40.22
43711;BME280;29309;42.682;23.372;2022-08-20T07:01:33;94775.84;;;30.29;39.65
43711;BME280;29309;42.682;23.372;2022-08-20T07:04:00;94782.75;;;30.59;39.05
43711;BME280;29309;42.682;23.372;2022-08-20T07:06:25;94782.66;;;30.61;38.76
43711;BME280;29309;42.682;23.372;2022-08-20T07:08:51;94779.25;;;30.77;38.79
43711;BME280;29309;42.682;23.372;2022-08-20T07:11:17;94770.66;;;30.77;37.55
43711;BME280;29309;42.682;23.372;2022-08-20T07:13:45;94775.09;;;30.93;37.83
43711;BME280;29309;42.682;23.372;2022-08-20T07:16:11;94773.72;;;30.92;37.35
43711;BME280;29309;42.682;23.372;2022-08-20T07:18:36;94782.81;;;30.99;37.44
43711;BME280;29309;42.682;23.372;2022-08-20T07:21:02;94760.06;;;30.93;36.99
43711;BME280;29309;42.682;23.372;2022-08-20T07:23:28;94772.75;;;31.00;37.22
43711;BME280;29309;42.682;23.372;2022-08-20T07:25:55;94759.97;;;31.15;37.15
43711;BME280;29309;42.682;23.372;2022-08-20T07:28:23;94763.97;;;31.43;36.67
43711;BME280;29309;42.682;23.372;2022-08-20T07:30:50;94754.50;;;31.47;36.42
43711;BME280;29309;42.682;23.372;2022-08-20T07:33:34;94755.53;;;31.58;36.08
43711;BME280;29309;42.682;23.372;2022-08-20T07:36:03;94755.72;;;31.33;36.43
43711;BME280;29309;42.682;23.372;2022-08-20T07:38:29;94751.94;;;31.20;36.15
43711;BME280;29309;42.682;23.372;2022-08-20T07:41:05;94750.56;;;30.98;36.58
43711;BME280;29309;42.682;23.372;2022-08-20T07:43:31;94755.88;;;30.90;37.23
43711;BME280;29309;42.682;23.372;2022-08-20T07:45:58;94750.00;;;30.94;36.88
43711;BME280;29309;42.682;23.372;2022-08-20T07:48:32;94751.97;;;30.99;37.30
43711;BME280;29309;42.682;23.372;2022-08-20T07:51:02;94744.00;;;31.02;36.86
43711;BME280;29309;42.682;23.372;2022-08-20T07:53:29;94754.75;;;31.01;37.29
43711;BME280;29309;42.682;23.372;2022-08-20T07:55:55;94752.22;;;31.12;37.37
43711;BME280;29309;42.682;23.372;2022-08-20T07:58:21;94743.44;;;31.55;36.43
43711;BME280;29309;42.682;23.372;2022-08-20T08:00:48;94751.19;;;31.59;36.68
43711;BME280;29309;42.682;23.372;2022-08-20T08:03:13;94746.44;;;31.70;35.67
43711;BME280;29309;42.682;23.372;2022-08-20T08:05:41;94740.38;;;31.97;35.35
43711;BME280;29309;42.682;23.372;2022-08-20T08:08:11;94737.00;;;32.09;35.08
43711;BME280;29309;42.682;23.372;2022-08-20T08:10:39;94742.91;;;32.40;34.86
43711;BME280;29309;42.682;23.372;2022-08-20T08:13:08;94746.72;;;32.35;34.82
43711;BME280;29309;42.682;23.372;2022-08-20T08:15:36;94755.56;;;32.64;34.34
43711;BME280;29309;42.682;23.372;2022-08-20T08:18:09;94738.63;;;32.23;34.64
43711;BME280;29309;42.682;23.372;2022-08-20T08:20:39;94746.66;;;32.53;34.40
43711;BME280;29309;42.682;23.372;2022-08-20T08:23:10;94744.31;;;32.91;33.58
43711;BME280;29309;42.682;23.372;2022-08-20T08:25:40;94744.66;;;33.17;33.40
43711;BME280;29309;42.682;23.372;2022-08-20T08:28:08;94742.75;;;33.42;32.76
43711;BME280;29309;42.682;23.372;2022-08-20T08:30:39;94732.63;;;33.12;33.39
43711;BME280;29309;42.682;23.372;2022-08-20T08:33:06;94731.88;;;33.28;33.45
43711;BME280;29309;42.682;23.372;2022-08-20T08:35:51;94747.81;;;33.42;32.87
43711;BME280;29309;42.682;23.372;2022-08-20T08:38:16;94733.56;;;33.23;32.92
43711;BME280;29309;42.682;23.372;2022-08-20T08:40:42;94729.56;;;33.47;32.81
43711;BME280;29309;42.682;23.372;2022-08-20T08:43:10;94716.53;;;32.69;33.70
43711;BME280;29309;42.682;23.372;2022-08-20T08:45:42;94724.03;;;32.79;34.18
43711;BME280;29309;42.682;23.372;2022-08-20T08:48:14;94717.81;;;32.89;33.09
43711;BME280;29309;42.682;23.372;2022-08-20T08:50:41;94718.94;;;32.96;32.74
43711;BME280;29309;42.682;23.372;2022-08-20T08:53:15;94701.88;;;32.58;33.50
43711;BME280;29309;42.682;23.372;2022-08-20T08:55:43;94707.19;;;32.35;34.14
43711;BME280;29309;42.682;23.372;2022-08-20T08:58:09;94699.19;;;32.54;33.76
43711;BME280;29309;42.682;23.372;2022-08-20T09:00:35;94709.47;;;32.83;32.89
43711;BME280;29309;42.682;23.372;2022-08-20T09:03:07;94701.53;;;32.50;33.08
43711;BME280;29309;42.682;23.372;2022-08-20T09:05:55;94688.47;;;32.36;33.10
43711;BME280;29309;42.682;23.372;2022-08-20T09:08:35;94693.53;;;32.36;33.52
43711;BME280;29309;42.682;23.372;2022-08-20T09:11:05;94688.22;;;32.42;33.40
43711;BME280;29309;42.682;23.372;2022-08-20T09:13:32;94686.56;;;32.64;32.73
43711;BME280;29309;42.682;23.372;2022-08-20T09:15:58;94687.94;;;32.82;32.91
43711;BME280;29309;42.682;23.372;2022-08-20T09:18:23;94693.56;;;33.17;32.62
43711;BME280;29309;42.682;23.372;2022-08-20T09:20:49;94687.09;;;33.48;31.63
43711;BME280;29309;42.682;23.372;2022-08-20T09:23:14;94698.28;;;33.71;30.69
43711;BME280;29309;42.682;23.372;2022-08-20T09:25:40;94698.97;;;33.86;30.05
43711;BME280;29309;42.682;23.372;2022-08-20T09:28:05;94696.88;;;33.84;30.52
43711;BME280;29309;42.682;23.372;2022-08-20T09:30:31;94690.88;;;33.59;31.15
43711;BME280;29309;42.682;23.372;2022-08-20T09:33:01;94692.47;;;33.56;30.69
43711;BME280;29309;42.682;23.372;2022-08-20T09:35:27;94684.81;;;33.50;31.00
43711;BME280;29309;42.682;23.372;2022-08-20T09:37:53;94682.66;;;33.66;30.75
43711;BME280;29309;42.682;23.372;2022-08-20T09:40:19;94684.38;;;33.90;30.14
43711;BME280;29309;42.682;23.372;2022-08-20T09:42:45;94674.72;;;33.66;30.43
43711;BME280;29309;42.682;23.372;2022-08-20T09:45:11;94673.44;;;33.78;30.31
43711;BME280;29309;42.682;23.372;2022-08-20T09:47:41;94665.72;;;33.43;31.15
43711;BME280;29309;42.682;23.372;2022-08-20T09:50:07;94681.41;;;33.92;31.03
43711;BME280;29309;42.682;23.372;2022-08-20T09:52:36;94667.94;;;33.42;31.15
43711;BME280;29309;42.682;23.372;2022-08-20T09:55:16;94674.88;;;33.47;31.11
43711;BME280;29309;42.682;23.372;2022-08-20T09:57:43;94665.97;;;33.68;30.63
43711;BME280;29309;42.682;23.372;2022-08-20T10:00:09;94665.09;;;33.72;30.80
43711;BME280;29309;42.682;23.372;2022-08-20T10:02:39;94665.59;;;33.76;30.53
43711;BME280;29309;42.682;23.372;2022-08-20T10:05:05;94667.84;;;33.59;31.04
43711;BME280;29309;42.682;23.372;2022-08-20T10:07:31;94670.66;;;33.90;31.19
43711;BME280;29309;42.682;23.372;2022-08-20T10:09:58;94665.41;;;33.95;29.96
43711;BME280;29309;42.682;23.372;2022-08-20T10:12:24;94669.56;;;33.98;29.85
43711;BME280;29309;42.682;23.372;2022-08-20T10:14:50;94662.22;;;34.01;30.08
43711;BME280;29309;42.682;23.372;2022-08-20T10:17:18;94668.06;;;34.28;29.86
43711;BME280;29309;42.682;23.372;2022-08-20T10:19:44;94661.50;;;34.30;29.67
43711;BME280;29309;42.682;23.372;2022-08-20T10:22:09;94662.13;;;34.18;29.18
43711;BME280;29309;42.682;23.372;2022-08-20T10:24:35;94668.81;;;34.14;29.24
43711;BME280;29309;42.682;23.372;2022-08-20T10:27:00;94663.91;;;33.96;29.93
43711;BME280;29309;42.682;23.372;2022-08-20T10:29:27;94649.69;;;34.06;29.28
43711;BME280;29309;42.682;23.372;2022-08-20T10:31:53;94653.66;;;34.28;29.41
43711;BME280;29309;42.682;23.372;2022-08-20T10:34:21;94644.19;;;34.44;29.30
43711;BME280;29309;42.682;23.372;2022-08-20T10:36:47;94654.78;;;34.63;29.17
43711;BME280;29309;42.682;23.372;2022-08-20T10:39:13;94645.63;;;34.73;28.73
43711;BME280;29309;42.682;23.372;2022-08-20T10:41:39;94640.38;;;34.90;27.74
43711;BME280;29309;42.682;23.372;2022-08-20T10:44:04;94635.22;;;35.05;27.79
43711;BME280;29309;42.682;23.372;2022-08-20T10:46:30;94633.88;;;35.17;27.66
43711;BME280;29309;42.682;23.372;2022-08-20T10:48:55;94633.47;;;34.97;28.10
43711;BME280;29309;42.682;23.372;2022-08-20T10:51:21;94637.75;;;34.71;28.38
43711;BME280;29309;42.682;23.372;2022-08-20T10:53:46;94631.06;;;34.47;28.79
43711;BME280;29309;42.682;23.372;2022-08-20T10:56:15;94628.03;;;34.64;28.81
43711;BME280;29309;42.682;23.372;2022-08-20T10:58:40;94628.41;;;34.71;28.47
43711;BME280;29309;42.682;23.372;2022-08-20T11:01:06;94631.38;;;34.96;28.11
43711;BME280;29309;42.682;23.372;2022-08-20T11:03:32;94625.06;;;35.06;28.14
43711;BME280;29309;42.682;23.372;2022-08-20T11:05:58;94623.38;;;35.24;28.51
43711;BME280;29309;42.682;23.372;2022-08-20T11:08:24;94619.94;;;35.21;27.67
43711;BME280;29309;42.682;23.372;2022-08-20T11:10:50;94627.50;;;35.01;27.96
43711;BME280;29309;42.682;23.372;2022-08-20T11:13:16;94627.78;;;35.23;27.65
43711;BME280;29309;42.682;23.372;2022-08-20T11:15:42;94619.03;;;35.37;27.39
43711;BME280;29309;42.682;23.372;2022-08-20T11:18:09;94621.78;;;35.27;27.80
43711;BME280;29309;42.682;23.372;2022-08-20T11:20:35;94622.66;;;35.11;26.85
43711;BME280;29309;42.682;23.372;2022-08-20T11:23:02;94616.44;;;34.79;27.90
43711;BME280;29309;42.682;23.372;2022-08-20T11:25:27;94618.59;;;34.66;28.04
43711;BME280;29309;42.682;23.372;2022-08-20T11:27:54;94601.22;;;34.26;28.11
43711;BME280;29309;42.682;23.372;2022-08-20T11:30:29;94594.84;;;34.23;28.61
43711;BME280;29309;42.682;23.372;2022-08-20T11:32:56;94585.41;;;34.25;27.83
43711;BME280;29309;42.682;23.372;2022-08-20T11:35:22;94579.66;;;34.25;28.52
43711;BME280;29309;42.682;23.372;2022-08-20T11:37:50;94575.16;;;34.55;28.73
43711;BME280;29309;42.682;23.372;2022-08-20T11:40:16;94572.25;;;34.55;27.53
43711;BME280;29309;42.682;23.372;2022-08-20T11:42:41;94568.75;;;34.67;27.44
43711;BME280;29309;42.682;23.372;2022-08-20T11:45:07;94566.41;;;34.57;27.59
43711;BME280;29309;42.682;23.372;2022-08-20T11:47:33;94563.59;;;34.42;27.79
43711;BME280;29309;42.682;23.372;2022-08-20T11:50:07;94565.13;;;34.12;27.47
43711;BME280;29309;42.682;23.372;2022-08-20T11:52:33;94570.06;;;33.86;27.57
43711;BME280;29309;42.682;23.372;2022-08-20T11:54:59;94557.63;;;33.90;27.51
43711;BME280;29309;42.682;23.372;2022-08-20T11:57:30;94561.53;;;33.70;27.58
43711;BME280;29309;42.682;23.372;2022-08-20T11:59:58;94566.81;;;33.65;27.19
43711;BME280;29309;42.682;23.372;2022-08-20T12:02:24;94571.44;;;33.43;27.19
43711;BME280;29309;42.682;23.372;2022-08-20T12:04:50;94572.84;;;33.30;28.15
43711;BME280;29309;42.682;23.372;2022-08-20T12:07:20;94572.44;;;33.23;27.78
43711;BME280;29309;42.682;23.372;2022-08-20T12:09:47;94569.38;;;33.42;27.87
43711;BME280;29309;42.682;23.372;2022-08-20T12:12:13;94555.28;;;33.36;27.94
43711;BME280;29309;42.682;23.372;2022-08-20T12:14:38;94561.13;;;33.48;28.57
43711;BME280;29309;42.682;23.372;2022-08-20T12:17:09;94562.25;;;33.70;28.57
43711;BME280;29309;42.682;23.372;2022-08-20T12:19:40;94566.72;;;33.67;28.48
43711;BME280;29309;42.682;23.372;2022-08-20T12:22:07;94572.06;;;33.46;28.90
43711;BME280;29309;42.682;23.372;2022-08-20T12:24:34;94579.38;;;33.28;28.98
43711;BME280;29309;42.682;23.372;2022-08-20T12:27:16;94577.38;;;33.25;29.77
43711;BME280;29309;42.682;23.372;2022-08-20T12:29:45;94567.53;;;33.05;30.00
43711;BME280;29309;42.682;23.372;2022-08-20T12:32:10;94580.63;;;33.02;30.30
43711;BME280;29309;42.682;23.372;2022-08-20T12:34:37;94575.91;;;32.80;31.26
43711;BME280;29309;42.682;23.372;2022-08-20T12:37:08;94593.53;;;32.72;32.10
43711;BME280;29309;42.682;23.372;2022-08-20T12:39:39;94585.00;;;32.53;35.71
43711;BME280;29309;42.682;23.372;2022-08-20T12:42:06;94595.13;;;32.52;34.34
43711;BME280;29309;42.682;23.372;2022-08-20T12:44:33;94601.59;;;32.19;38.16
43711;BME280;29309;42.682;23.372;2022-08-20T12:49:35;94628.66;;;27.83;52.85
43711;BME280;29309;42.682;23.372;2022-08-20T12:52:01;94635.44;;;26.40;60.34
43711;BME280;29309;42.682;23.372;2022-08-20T12:54:27;94637.41;;;25.27;62.19
43711;BME280;29309;42.682;23.372;2022-08-20T12:56:52;94622.28;;;24.38;67.16
43711;BME280;29309;42.682;23.372;2022-08-20T12:59:18;94620.47;;;24.13;73.95
43711;BME280;29309;42.682;23.372;2022-08-20T13:01:43;94593.75;;;23.91;72.31
43711;BME280;29309;42.682;23.372;2022-08-20T13:04:09;94573.19;;;23.93;68.12
43711;BME280;29309;42.682;23.372;2022-08-20T13:06:34;94568.22;;;23.91;76.46
43711;BME280;29309;42.682;23.372;2022-08-20T13:09:00;94568.28;;;23.87;73.28